Time;durP1;ratioP1;P1;durP2;ratioP2;P2;SDS_P1;SDS_P2;PMS_P1;PMS_P2;Temp;Humidity;BMP_temperature;BMP_pressure;BME280_temperature;BME280_humidity;BME280_pressure;Samples;Min_cycle;Max_cycle;Signal;HPM_P1;HPM_P2
2023/02/19 00:01:24;;;;;;;15.10;3.10;;;;;;;12.50;76.98;101899.09;4984006;28;20030;-43
2023/02/19 00:03:52;;;;;;;15.18;3.00;;;;;;;13.12;74.35;101890.78;4981837;28;20042;-46
2023/02/19 00:06:19;;;;;;;16.80;3.38;;;;;;;12.69;75.60;101896.88;4985172;28;20062;-43
2023/02/19 00:08:44;;;;;;;11.77;2.88;;;;;;;13.12;74.39;101899.53;4981349;28;20038;-43
2023/02/19 00:11:12;;;;;;;13.50;2.55;;;;;;;12.80;74.89;101906.75;4985574;28;20060;-43
2023/02/19 00:13:39;;;;;;;14.07;2.70;;;;;;;13.03;73.93;101899.34;4985232;28;20046;-46
2023/02/19 00:16:25;;;;;;;13.38;3.25;;;;;;;12.79;74.53;101909.31;4981289;28;21469;-43
2023/02/19 00:18:51;;;;;;;10.85;2.60;;;;;;;12.91;74.11;101899.09;4981386;28;20125;-48
2023/02/19 00:21:17;;;;;;;14.80;3.15;;;;;;;12.96;74.23;101902.69;4984894;28;20034;-47
2023/02/19 00:23:42;;;;;;;13.02;2.70;;;;;;;13.09;73.54;101893.34;4985372;28;20034;-49
2023/02/19 00:26:10;;;;;;;12.25;2.70;;;;;;;13.06;73.48;101906.34;4981418;28;20136;-44
2023/02/19 00:28:36;;;;;;;13.45;2.72;;;;;;;12.79;74.72;101897.13;4985692;28;20122;-45
2023/02/19 00:31:11;;;;;;;12.27;2.70;;;;;;;12.67;74.56;101899.47;4983603;28;20053;-43
2023/02/19 00:33:36;;;;;;;14.75;3.35;;;;;;;12.51;74.39;101906.09;4985994;28;20034;-48
2023/02/19 00:36:04;;;;;;;12.25;2.88;;;;;;;12.94;73.60;101901.75;4981310;28;20041;-44
2023/02/19 00:38:29;;;;;;;13.85;3.22;;;;;;;12.79;74.11;101912.81;4985066;28;20030;-45
2023/02/19 00:40:55;;;;;;;13.63;2.92;;;;;;;12.74;73.79;101905.72;4983944;28;20089;-42
2023/02/19 00:43:20;;;;;;;15.88;3.05;;;;;;;12.94;73.23;101907.00;4986752;28;20054;-43
2023/02/19 00:45:45;;;;;;;14.80;2.83;;;;;;;12.67;73.67;101912.56;4982213;28;20031;-42
2023/02/19 00:48:11;;;;;;;9.40;2.90;;;;;;;13.06;72.36;101922.94;4986741;28;20035;-44
2023/02/19 00:50:36;;;;;;;14.77;3.20;;;;;;;12.72;73.61;101929.25;4989260;28;20023;-45
2023/02/19 00:53:01;;;;;;;15.18;2.83;;;;;;;12.84;72.94;101926.00;4985893;28;22674;-43
2023/02/19 00:55:27;;;;;;;11.43;3.00;;;;;;;12.91;72.92;101914.81;4989348;28;20058;-44
2023/02/19 00:57:52;;;;;;;12.85;2.83;;;;;;;13.06;72.63;101929.91;4985684;28;20034;-49
2023/02/19 01:00:17;;;;;;;12.68;2.60;;;;;;;13.10;71.98;101918.69;4988532;28;20041;-45
2023/02/19 01:02:43;;;;;;;11.82;2.78;;;;;;;12.88;72.32;101931.31;4987623;28;20038;-45
2023/02/19 01:05:08;;;;;;;14.98;2.65;;;;;;;12.82;73.19;101922.44;4982258;28;20069;-48
2023/02/19 01:07:35;;;;;;;9.70;2.40;;;;;;;13.22;71.69;101926.81;4969075;28;20053;-45
2023/02/19 01:10:00;;;;;;;17.65;2.80;;;;;;;12.97;72.30;101928.03;4982691;28;20091;-48
2023/02/19 01:12:27;;;;;;;9.52;2.35;;;;;;;13.15;72.06;101925.81;4989088;28;20593;-43
2023/02/19 01:14:53;;;;;;;13.10;2.47;;;;;;;13.15;71.65;101924.91;4984916;28;20034;-43
2023/02/19 01:17:19;;;;;;;10.35;2.60;;;;;;;13.08;71.80;101931.72;4988595;28;20030;-48
2023/02/19 01:19:44;;;;;;;13.98;2.90;;;;;;;13.30;71.06;101933.94;4984755;28;20038;-43
2023/02/19 01:22:09;;;;;;;11.90;2.70;;;;;;;12.86;72.18;101932.16;4988152;28;20030;-45
2023/02/19 01:24:35;;;;;;;13.77;2.65;;;;;;;12.98;72.17;101927.16;4988874;28;20035;-44
2023/02/19 01:27:00;;;;;;;13.82;2.65;;;;;;;12.99;71.80;101935.03;4984887;28;20045;-43
2023/02/19 01:29:25;;;;;;;11.68;2.50;;;;;;;13.08;71.95;101934.34;4985636;28;20030;-47
2023/02/19 01:31:50;;;;;;;11.25;2.80;;;;;;;12.89;72.18;101934.81;4981767;28;20034;-45
2023/02/19 01:34:16;;;;;;;10.50;2.72;;;;;;;13.02;72.02;101929.00;4985047;28;20247;-44
2023/02/19 01:36:41;;;;;;;13.13;2.90;;;;;;;13.05;71.72;101926.44;4969049;28;20038;-44
2023/02/19 01:39:06;;;;;;;12.43;2.80;;;;;;;12.86;71.63;101927.81;4982357;28;20035;-44
2023/02/19 01:41:35;;;;;;;13.07;2.80;;;;;;;12.97;71.79;101931.53;4985780;28;20035;-45
2023/02/19 01:44:02;;;;;;;16.63;2.97;;;;;;;12.89;71.52;101933.09;4980449;28;20045;-43
2023/02/19 01:46:32;;;;;;;17.10;2.80;;;;;;;12.99;71.64;101935.03;4966774;28;20188;-46
2023/02/19 01:49:03;;;;;;;12.98;2.83;;;;;;;13.04;71.31;101935.16;4980014;28;20034;-45
2023/02/19 01:51:29;;;;;;;10.68;3.03;;;;;;;12.96;71.55;101940.22;4984174;28;20407;-47
2023/02/19 01:53:58;;;;;;;11.98;3.08;;;;;;;13.10;71.24;101937.88;4980202;28;20039;-45
2023/02/19 01:56:26;;;;;;;14.77;2.88;;;;;;;12.93;71.70;101941.88;4983819;28;20425;-45
2023/02/19 01:58:52;;;;;;;12.82;3.05;;;;;;;13.03;71.25;101943.84;4979313;28;20039;-45
2023/02/19 02:01:17;;;;;;;17.10;2.95;;;;;;;12.98;71.04;101948.13;4983773;28;20034;-44
2023/02/19 02:03:47;;;;;;;16.80;2.78;;;;;;;13.22;70.24;101953.00;4983741;28;20062;-44
2023/02/19 02:06:26;;;;;;;11.38;2.60;;;;;;;12.68;71.61;101957.94;4980482;28;20034;-44
2023/02/19 02:11:43;;;;;;;11.07;2.80;;;;;;;12.91;71.20;101954.94;4983946;28;20048;-49
2023/02/19 02:14:10;;;;;;;13.93;2.60;;;;;;;13.01;71.12;101961.25;4982619;28;20117;-44
2023/02/19 02:16:54;;;;;;;12.18;2.97;;;;;;;13.12;70.30;101961.47;4986483;28;20496;-47
2023/02/19 02:19:44;;;;;;;13.13;2.55;;;;;;;13.04;70.20;101958.72;4983406;28;20034;-46
2023/02/19 02:22:16;;;;;;;13.13;2.55;;;;;;;13.07;69.77;101958.75;4984266;28;20049;-44
2023/02/19 02:25:15;;;;;;;12.15;2.90;;;;;;;13.26;69.67;101955.69;4986984;28;20034;-48
2023/02/19 02:28:17;;;;;;;11.63;2.80;;;;;;;12.92;70.30;101966.31;4983899;28;20038;-43
2023/02/19 02:30:49;;;;;;;10.52;2.60;;;;;;;12.79;70.83;101964.28;4983167;28;20065;-44
2023/02/19 02:33:32;;;;;;;12.88;2.83;;;;;;;12.82;71.03;101959.97;4983315;28;20030;-48
2023/02/19 02:36:17;;;;;;;10.48;2.70;;;;;;;13.28;69.93;101968.81;4983911;28;20093;-46
2023/02/19 02:38:44;;;;;;;12.77;2.97;;;;;;;12.82;70.93;101974.78;4986664;28;20074;-43
2023/02/19 02:41:11;;;;;;;12.32;2.67;;;;;;;12.95;70.83;101969.84;4983134;28;20125;-43
2023/02/19 02:43:36;;;;;;;13.13;2.70;;;;;;;13.12;70.37;101969.31;4986462;28;20031;-44
2023/02/19 02:46:02;;;;;;;12.90;2.90;;;;;;;12.87;71.11;101981.00;4983071;28;20085;-43
2023/02/19 02:48:35;;;;;;;13.00;3.17;;;;;;;13.05;70.30;101970.06;4986512;28;20251;-45
2023/02/19 02:51:35;;;;;;;10.52;2.72;;;;;;;12.91;70.48;101975.00;4983124;28;20116;-44
2023/02/19 02:56:48;;;;;;;10.18;2.58;;;;;;;12.73;71.42;101966.75;4979624;28;20053;-44
2023/02/19 02:59:17;;;;;;;13.27;2.80;;;;;;;12.86;71.15;101979.25;4968859;28;20038;-43
2023/02/19 03:07:46;;;;;;;11.88;2.50;;;;;;;12.39;73.86;101988.63;4983223;28;20037;-44
2023/02/19 03:10:22;;;;;;;14.07;2.60;;;;;;;12.81;72.68;101994.84;4983870;28;20034;-43
2023/02/19 03:21:15;;;;;;;15.25;2.92;;;;;;;13.09;71.00;102003.31;4982071;28;20033;-45
2023/02/19 03:26:29;;;;;;;14.75;2.70;;;;;;;12.89;71.19;102008.09;4986722;28;20077;-44
2023/02/19 03:31:43;;;;;;;12.00;2.33;;;;;;;12.79;71.43;102014.88;4985744;28;20041;-42
2023/02/19 03:34:14;;;;;;;10.48;2.72;;;;;;;12.79;71.28;102016.59;4982269;28;20108;-46
2023/02/19 03:36:45;;;;;;;14.43;2.90;;;;;;;12.52;72.76;102002.03;4985355;28;20044;-44
2023/02/19 03:39:14;;;;;;;14.00;2.40;;;;;;;12.71;73.34;102015.53;4983393;28;20039;-43
2023/02/19 03:41:43;;;;;;;11.38;2.42;;;;;;;12.87;72.88;102017.66;4986836;28;20089;-43
2023/02/19 03:44:22;;;;;;;12.25;2.85;;;;;;;12.84;73.28;102022.81;4987056;28;20164;-46
2023/02/19 03:47:02;;;;;;;14.18;2.63;;;;;;;12.41;74.28;102019.22;4985711;28;20039;-45
2023/02/19 03:50:00;;;;;;;12.63;2.42;;;;;;;12.43;74.33;102022.75;4989348;28;20037;-46
2023/02/19 03:52:40;;;;;;;10.60;2.40;;;;;;;12.14;75.14;102027.25;4986205;28;20033;-46
2023/02/19 03:55:14;;;;;;;11.68;2.47;;;;;;;12.28;74.09;102029.34;4984556;28;20069;-46
2023/02/19 03:57:58;;;;;;;13.35;2.47;;;;;;;12.22;74.31;102034.41;4987993;28;20053;-48
2023/02/19 04:00:47;;;;;;;11.98;2.55;;;;;;;12.30;73.98;102031.16;4982296;28;20125;-46
2023/02/19 04:03:24;;;;;;;10.00;2.45;;;;;;;12.51;73.29;102041.22;4981737;28;20039;-44
2023/02/19 04:06:04;;;;;;;13.77;2.70;;;;;;;12.53;73.23;102036.94;4981448;28;20042;-45
2023/02/19 04:08:33;;;;;;;13.25;2.53;;;;;;;12.13;73.83;102037.69;4985302;28;20030;-43
2023/02/19 04:10:59;;;;;;;11.07;2.38;;;;;;;12.46;73.54;102037.63;4981302;28;20036;-44
2023/02/19 04:16:03;;;;;;;11.80;2.45;;;;;;;12.29;74.51;102042.44;4978261;28;20118;-42
2023/02/19 04:18:35;;;;;;;8.65;2.25;;;;;;;12.23;75.36;102041.41;4983825;28;20117;-41
2023/02/19 04:21:02;;;;;;;11.45;2.47;;;;;;;12.02;75.00;102054.81;4979142;28;20104;-41
2023/02/19 04:23:30;;;;;;;12.85;2.33;;;;;;;12.54;74.00;102062.25;4985098;28;20485;-42
2023/02/19 04:25:59;;;;;;;13.40;2.38;;;;;;;12.27;74.48;102067.66;4982348;28;20026;-42
2023/02/19 04:28:25;;;;;;;8.20;2.03;;;;;;;12.43;73.82;102064.59;4984734;28;20069;-41
2023/02/19 04:30:50;;;;;;;14.70;2.45;;;;;;;12.20;74.23;102077.06;4979507;28;20038;-40
2023/02/19 04:33:15;;;;;;;12.93;2.72;;;;;;;12.35;73.46;102071.38;4984946;28;20061;-42
2023/02/19 04:35:41;;;;;;;11.75;2.60;;;;;;;12.35;72.68;102079.22;4984383;28;20050;-40
2023/02/19 04:38:06;;;;;;;12.93;2.50;;;;;;;12.33;73.48;102088.75;4980549;28;20041;-43
2023/02/19 04:40:31;;;;;;;13.43;2.13;;;;;;;12.68;72.08;102093.97;4985012;28;20088;-43
2023/02/19 04:42:57;;;;;;;11.35;2.53;;;;;;;12.36;72.93;102106.25;4982685;28;20070;-40
2023/02/19 04:45:22;;;;;;;11.93;2.10;;;;;;;12.40;72.32;102103.75;4986478;28;20084;-42
2023/02/19 04:47:47;;;;;;;14.98;2.55;;;;;;;12.58;71.28;102106.81;4982847;28;20035;-42
2023/02/19 04:50:13;;;;;;;11.40;2.50;;;;;;;12.68;71.36;102115.81;4986892;28;20045;-39
2023/02/19 04:52:38;;;;;;;12.27;2.42;;;;;;;12.92;70.33;102119.00;4966566;28;20053;-41
2023/02/19 04:55:04;;;;;;;12.82;2.42;;;;;;;12.52;71.41;102122.38;4980565;28;20214;-41
2023/02/19 04:57:30;;;;;;;12.73;2.65;;;;;;;12.76;70.53;102123.81;4984285;28;20046;-44
2023/02/19 04:59:55;;;;;;;10.45;2.40;;;;;;;12.24;71.85;102124.25;4979722;28;20531;-41
2023/02/19 05:02:20;;;;;;;15.75;2.63;;;;;;;12.26;71.69;102133.03;4983501;28;20038;-42
2023/02/19 05:04:46;;;;;;;12.57;2.60;;;;;;;12.41;71.24;102136.03;4979579;28;20333;-43
2023/02/19 05:07:11;;;;;;;9.32;2.33;;;;;;;12.40;71.56;102139.47;4984813;28;20503;-42
2023/02/19 05:09:36;;;;;;;9.13;2.28;;;;;;;12.19;71.63;102150.28;4986075;28;20126;-42
2023/02/19 05:12:02;;;;;;;12.27;2.40;;;;;;;12.35;71.69;102146.31;4981430;28;20379;-42
2023/02/19 05:14:27;;;;;;;9.30;2.22;;;;;;;12.53;71.00;102149.41;4983385;28;20045;-43
2023/02/19 05:16:53;;;;;;;11.23;2.70;;;;;;;12.29;71.71;102156.63;4978825;28;20118;-41
2023/02/19 05:19:18;;;;;;;13.35;2.50;;;;;;;12.56;71.39;102152.97;4985576;28;20084;-40
2023/02/19 05:21:43;;;;;;;10.25;2.42;;;;;;;12.70;70.57;102165.53;4981989;28;20413;-41
2023/02/19 05:24:09;;;;;;;9.55;2.33;;;;;;;12.42;71.13;102166.56;4985541;28;20042;-42
2023/02/19 05:26:34;;;;;;;11.43;2.80;;;;;;;12.60;71.12;102161.81;4984370;28;20136;-42
2023/02/19 05:29:00;;;;;;;11.68;2.90;;;;;;;12.20;72.12;102160.75;4978956;28;20031;-42
2023/02/19 05:31:25;;;;;;;12.60;2.85;;;;;;;12.40;71.82;102166.50;4982518;28;20031;-41
2023/02/19 05:33:51;;;;;;;9.50;2.70;;;;;;;12.51;71.87;102158.94;4978635;28;20039;-42
2023/02/19 05:36:19;;;;;;;11.45;2.50;;;;;;;12.35;72.43;102156.78;4982540;28;20061;-42
2023/02/19 05:38:45;;;;;;;13.38;2.90;;;;;;;12.43;72.16;102156.16;4978129;28;20043;-42
2023/02/19 05:41:12;;;;;;;10.85;2.65;;;;;;;12.46;71.78;102158.81;4982350;28;20484;-41
2023/02/19 05:43:39;;;;;;;6.57;2.47;;;;;;;12.47;72.31;102157.09;4984772;28;20125;-41
2023/02/19 05:46:05;;;;;;;10.68;2.65;;;;;;;12.03;73.88;102162.00;4982507;28;20033;-42
2023/02/19 05:48:31;;;;;;;10.40;2.67;;;;;;;12.24;73.23;102159.13;4986435;28;20180;-42
2023/02/19 05:51:01;;;;;;;9.82;2.70;;;;;;;12.23;73.60;102162.56;4982397;28;20038;-44
2023/02/19 05:53:27;;;;;;;9.50;3.13;;;;;;;12.37;73.00;102155.09;4986293;28;20026;-42
2023/02/19 05:55:52;;;;;;;8.27;2.67;;;;;;;12.31;73.35;102165.41;4982677;28;20060;-40
2023/02/19 05:58:17;;;;;;;10.60;2.78;;;;;;;12.28;73.30;102167.91;4986187;28;20497;-40
2023/02/19 06:00:43;;;;;;;9.88;2.78;;;;;;;11.95;74.78;102174.00;4984053;28;20049;-39
2023/02/19 06:03:08;;;;;;;15.10;3.38;;;;;;;11.99;75.01;102178.47;4967111;28;20129;-41
2023/02/19 06:05:33;;;;;;;10.82;2.97;;;;;;;12.19;74.35;102172.06;4985999;28;20408;-39
2023/02/19 06:07:58;;;;;;;7.72;2.70;;;;;;;12.04;74.17;102174.25;4982331;28;20041;-40
2023/02/19 06:10:24;;;;;;;9.55;2.70;;;;;;;12.07;74.17;102182.19;4985842;28;20097;-45
2023/02/19 06:12:52;;;;;;;7.57;2.50;;;;;;;12.02;74.54;102188.09;4964419;28;20048;-41
2023/02/19 06:15:18;;;;;;;8.00;2.63;;;;;;;12.04;74.84;102195.16;4985809;28;20241;-40
2023/02/19 06:17:43;;;;;;;8.38;2.85;;;;;;;12.05;74.41;102193.44;4986126;28;20042;-40
2023/02/19 06:20:09;;;;;;;10.45;2.80;;;;;;;12.11;73.62;102198.84;4981876;28;20040;-41
2023/02/19 06:22:34;;;;;;;8.57;2.47;;;;;;;12.27;73.47;102208.88;4986012;28;20114;-42
2023/02/19 06:24:59;;;;;;;8.32;2.60;;;;;;;12.30;73.07;102200.22;4982151;28;20045;-40
2023/02/19 06:27:25;;;;;;;12.48;2.72;;;;;;;12.22;72.96;102209.59;4986620;28;20081;-40
2023/02/19 06:29:50;;;;;;;8.93;2.38;;;;;;;11.99;73.73;102215.06;4984591;28;20089;-42
2023/02/19 06:32:15;;;;;;;10.35;2.58;;;;;;;12.10;73.18;102211.00;4987418;28;20030;-42
2023/02/19 06:34:41;;;;;;;12.32;2.78;;;;;;;12.01;73.27;102220.34;4985642;28;20034;-41
2023/02/19 06:37:06;;;;;;;9.98;2.58;;;;;;;12.17;72.98;102215.59;4981753;28;20579;-40
2023/02/19 06:39:32;;;;;;;9.70;2.65;;;;;;;12.26;72.81;102219.31;4985261;28;20130;-40
2023/02/19 06:41:57;;;;;;;8.80;2.40;;;;;;;12.40;71.93;102228.41;4981352;28;20110;-45
2023/02/19 06:44:24;;;;;;;11.43;2.67;;;;;;;12.12;72.86;102219.78;4985246;28;20106;-42
2023/02/19 06:46:49;;;;;;;11.68;3.03;;;;;;;12.07;73.26;102221.41;4981105;28;20109;-40
2023/02/19 06:49:15;;;;;;;8.25;2.78;;;;;;;12.02;73.87;102225.59;4967882;28;20034;-40
2023/02/19 06:51:41;;;;;;;9.77;2.85;;;;;;;12.06;73.18;102230.09;4985558;28;20097;-41
2023/02/19 06:54:06;;;;;;;11.18;2.50;;;;;;;12.00;73.81;102235.13;4981130;28;20085;-40
2023/02/19 06:56:38;;;;;;;9.20;2.50;;;;;;;12.23;73.03;102237.50;4986924;28;20034;-40
2023/02/19 06:59:07;;;;;;;7.22;2.30;;;;;;;12.31;72.04;102236.00;4983149;28;20062;-43
2023/02/19 07:01:35;;;;;;;10.52;2.65;;;;;;;12.08;72.79;102244.06;4984763;28;20322;-39
2023/02/19 07:04:01;;;;;;;9.27;2.63;;;;;;;12.00;73.49;102249.94;4981055;28;20453;-44
2023/02/19 07:06:27;;;;;;;12.35;3.00;;;;;;;11.90;73.59;102260.91;4984833;28;20034;-40
2023/02/19 07:08:54;;;;;;;8.50;2.60;;;;;;;12.04;73.04;102264.84;4981219;28;20116;-43
2023/02/19 07:11:20;;;;;;;8.77;2.63;;;;;;;11.67;74.35;102275.88;4984845;28;20566;-44
2023/02/19 07:13:46;;;;;;;10.55;3.00;;;;;;;12.05;73.71;102272.75;4982772;28;20046;-39
2023/02/19 07:16:11;;;;;;;8.35;2.97;;;;;;;12.03;74.11;102277.03;4984066;28;20030;-41
2023/02/19 07:18:38;;;;;;;10.90;2.95;;;;;;;12.07;74.49;102272.78;4984503;28;20177;-43
2023/02/19 07:21:10;;;;;;;10.65;2.80;;;;;;;12.10;74.50;102280.72;4981529;28;20038;-45
2023/02/19 07:23:36;;;;;;;10.70;3.17;;;;;;;12.12;74.53;102285.16;4985849;28;20108;-41
2023/02/19 07:26:01;;;;;;;11.60;3.10;;;;;;;11.90;75.87;102303.63;4981570;28;20076;-43
2023/02/19 07:28:27;;;;;;;14.38;3.50;;;;;;;12.20;74.78;102307.16;4985183;28;20061;-41
2023/02/19 07:30:52;;;;;;;14.93;3.22;;;;;;;12.21;74.63;102300.22;4981162;28;20065;-41
2023/02/19 07:33:18;;;;;;;11.15;3.28;;;;;;;12.07;75.16;102314.63;4985142;28;20121;-40
2023/02/19 07:35:48;;;;;;;12.40;3.22;;;;;;;12.07;75.32;102320.72;4985046;28;20027;-40
2023/02/19 07:38:18;;;;;;;11.82;3.10;;;;;;;11.81;76.08;102329.50;4980950;28;20038;-44
2023/02/19 07:40:57;;;;;;;15.07;3.17;;;;;;;11.88;76.02;102321.00;4980422;28;20436;-41
2023/02/19 07:43:24;;;;;;;9.57;3.10;;;;;;;11.34;77.22;102334.00;4984725;28;20132;-42
2023/02/19 07:45:50;;;;;;;8.10;2.63;;;;;;;11.57;76.79;102328.69;4980708;28;20077;-41
2023/02/19 07:48:15;;;;;;;11.32;3.17;;;;;;;11.86;75.53;102345.31;4984346;28;20084;-41
2023/02/19 07:50:41;;;;;;;11.40;2.67;;;;;;;11.55;76.75;102353.84;4984348;28;20046;-42
2023/02/19 07:53:07;;;;;;;11.07;2.85;;;;;;;11.86;75.80;102359.25;4980521;28;20451;-40
2023/02/19 07:55:33;;;;;;;14.77;3.17;;;;;;;11.56;77.05;102358.25;4983900;28;20067;-40
2023/02/19 07:57:59;;;;;;;11.75;2.80;;;;;;;11.70;76.51;102363.09;4980370;28;20496;-40
2023/02/19 08:00:25;;;;;;;7.90;2.85;;;;;;;11.52;76.70;102361.59;4983952;28;20034;-40
2023/02/19 08:02:59;;;;;;;13.18;2.90;;;;;;;11.58;76.94;102373.13;4980080;28;20404;-42
2023/02/19 08:05:32;;;;;;;15.13;2.80;;;;;;;11.89;75.96;102372.44;4982996;28;20058;-41
2023/02/19 08:07:59;;;;;;;10.82;2.83;;;;;;;11.74;75.91;102379.78;4979800;28;20030;-39
2023/02/19 08:13:24;;;;;;;11.25;2.88;;;;;;;11.56;76.35;102376.53;4980934;28;20042;-39
2023/02/19 08:15:54;;;;;;;12.00;3.05;;;;;;;11.75;76.23;102386.78;4979946;28;20078;-40
2023/02/19 08:18:23;;;;;;;10.57;2.83;;;;;;;11.65;76.17;102382.91;4983733;28;20043;-40
2023/02/19 08:20:48;;;;;;;12.57;2.78;;;;;;;11.58;76.88;102386.19;4979926;28;20085;-43
2023/02/19 08:23:15;;;;;;;12.82;2.95;;;;;;;11.60;76.39;102389.72;4983775;28;20038;-42
2023/02/19 08:25:41;;;;;;;12.57;3.25;;;;;;;11.71;76.18;102384.88;4983673;28;20086;-43
2023/02/19 08:28:08;;;;;;;12.50;3.20;;;;;;;11.66;76.21;102392.53;4979652;28;20452;-41
2023/02/19 08:30:36;;;;;;;13.13;3.00;;;;;;;11.97;74.98;102399.69;4983434;28;20030;-44
2023/02/19 08:33:03;;;;;;;9.85;2.75;;;;;;;11.98;75.45;102403.19;4980143;28;20042;-41
2023/02/19 08:35:28;;;;;;;10.27;2.72;;;;;;;12.27;74.47;102397.13;4983989;28;20088;-41
2023/02/19 08:37:55;;;;;;;10.95;2.95;;;;;;;12.17;74.73;102393.38;4979710;28;20034;-41
2023/02/19 08:40:21;;;;;;;12.27;3.10;;;;;;;12.20;73.84;102388.22;4983338;28;20636;-44
2023/02/19 08:42:46;;;;;;;12.32;3.00;;;;;;;12.33;73.61;102386.88;4979889;28;20031;-41
2023/02/19 08:45:11;;;;;;;14.00;2.55;;;;;;;12.34;72.94;102396.47;4983676;28;20037;-40
2023/02/19 08:47:37;;;;;;;13.15;3.15;;;;;;;11.85;74.15;102404.50;4983196;28;20469;-44
2023/02/19 08:50:04;;;;;;;10.98;2.60;;;;;;;11.96;73.73;102410.97;4979762;28;20050;-41
2023/02/19 08:52:30;;;;;;;12.13;3.00;;;;;;;11.89;73.65;102401.19;4984246;28;20419;-41
2023/02/19 08:54:55;;;;;;;15.40;2.90;;;;;;;12.15;73.43;102397.66;4980573;28;20053;-41
2023/02/19 08:57:21;;;;;;;15.48;3.30;;;;;;;12.12;72.78;102391.44;4986364;28;20045;-41
2023/02/19 08:59:46;;;;;;;11.18;2.78;;;;;;;12.12;72.83;102389.72;4982324;28;20056;-39
2023/02/19 09:02:11;;;;;;;14.27;3.03;;;;;;;12.30;72.57;102380.66;4985681;28;20109;-41
2023/02/19 09:04:38;;;;;;;12.60;3.10;;;;;;;12.38;72.48;102389.63;4983593;28;20393;-40
2023/02/19 09:07:06;;;;;;;11.38;2.70;;;;;;;12.38;71.95;102405.34;4979290;28;20116;-41
2023/02/19 09:09:32;;;;;;;13.00;2.85;;;;;;;12.41;72.21;102408.03;4983170;28;20053;-40
2023/02/19 09:11:58;;;;;;;11.75;2.72;;;;;;;12.26;71.81;102424.13;4979570;28;20092;-43
2023/02/19 09:14:23;;;;;;;12.23;2.30;;;;;;;12.34;71.46;102412.19;4982944;28;20468;-42
2023/02/19 09:16:49;;;;;;;11.38;2.67;;;;;;;12.01;71.71;102435.56;4978518;28;20042;-40
2023/02/19 09:19:14;;;;;;;15.32;2.28;;;;;;;11.95;72.53;102427.53;4982319;28;20080;-43
2023/02/19 09:21:41;;;;;;;16.30;2.45;;;;;;;12.09;71.93;102422.72;4982904;28;20065;-41
2023/02/19 09:24:08;;;;;;;16.75;2.70;;;;;;;12.35;71.61;102434.88;4979637;28;20037;-45
2023/02/19 09:26:33;;;;;;;10.63;2.67;;;;;;;12.39;71.63;102447.19;4982986;28;20038;-41
2023/02/19 09:28:58;;;;;;;12.55;2.10;;;;;;;12.49;70.61;102449.28;4979099;28;20030;-42
2023/02/19 09:31:24;;;;;;;9.90;2.10;;;;;;;12.38;69.92;102447.19;4982738;28;20166;-41
2023/02/19 09:33:49;;;;;;;12.63;2.55;;;;;;;12.75;69.07;102459.63;4978809;28;20035;-43
2023/02/19 09:36:15;;;;;;;11.50;2.33;;;;;;;12.48;69.11;102463.19;4982712;28;20483;-40
2023/02/19 09:38:41;;;;;;;10.35;2.33;;;;;;;12.63;69.62;102462.75;4982812;28;20046;-44
2023/02/19 09:41:13;;;;;;;15.48;2.40;;;;;;;12.49;69.17;102469.31;4978572;28;20035;-46
2023/02/19 09:43:38;;;;;;;13.95;2.63;;;;;;;12.41;69.34;102486.50;4982809;28;20056;-42
2023/02/19 09:46:21;;;;;;;4.80;1.58;;;;;;;12.08;68.86;102487.16;4978937;28;20488;-41
2023/02/19 09:48:46;;;;;;;5.68;1.70;;;;;;;12.52;67.50;102493.81;4978974;28;20034;-44
2023/02/19 09:51:14;;;;;;;8.63;2.40;;;;;;;12.45;67.64;102499.69;4982866;28;20041;-42
2023/02/19 09:53:44;;;;;;;6.55;1.80;;;;;;;12.46;67.23;102500.59;4983462;28;20042;-41
2023/02/19 09:56:09;;;;;;;4.97;1.65;;;;;;;12.31;67.58;102502.75;4979328;28;20497;-45
2023/02/19 09:58:45;;;;;;;6.65;1.65;;;;;;;12.22;67.87;102520.72;4982898;28;20040;-41
2023/02/19 10:01:11;;;;;;;5.13;1.33;;;;;;;12.30;67.57;102507.09;4978677;28;20152;-42
2023/02/19 10:03:40;;;;;;;3.90;1.33;;;;;;;11.92;69.20;102505.81;4983033;28;20106;-42
2023/02/19 10:06:13;;;;;;;6.35;1.65;;;;;;;12.58;67.54;102514.06;4978582;28;20500;-42
2023/02/19 10:08:40;;;;;;;7.40;1.80;;;;;;;12.23;68.80;102512.94;4982323;28;20042;-42
2023/02/19 10:11:06;;;;;;;5.32;1.60;;;;;;;12.08;68.65;102520.25;4978129;28;20114;-42
2023/02/19 10:13:35;;;;;;;4.25;1.65;;;;;;;12.30;68.28;102516.66;4982792;28;20726;-43
2023/02/19 10:16:03;;;;;;;7.28;1.70;;;;;;;12.62;67.52;102522.91;4979258;28;20042;-41
2023/02/19 10:18:40;;;;;;;5.78;1.60;;;;;;;12.37;68.45;102521.25;4982259;28;20034;-39
2023/02/19 10:21:06;;;;;;;8.00;1.80;;;;;;;12.48;68.57;102538.16;4978436;28;20084;-42
2023/02/19 10:23:32;;;;;;;5.88;1.60;;;;;;;12.41;69.04;102538.81;4982424;28;20125;-41
2023/02/19 10:25:58;;;;;;;8.70;1.85;;;;;;;12.16;69.56;102540.63;4979108;28;20408;-42
2023/02/19 10:28:29;;;;;;;7.75;1.40;;;;;;;12.44;68.71;102545.00;4983313;28;20060;-43
2023/02/19 10:30:58;;;;;;;5.70;1.58;;;;;;;12.42;68.91;102545.81;4985451;28;20031;-41
2023/02/19 10:33:24;;;;;;;8.02;1.50;;;;;;;12.23;69.45;102553.88;4986830;28;20034;-41
2023/02/19 10:35:56;;;;;;;4.55;1.60;;;;;;;12.09;69.22;102558.66;4983350;28;20045;-41
2023/02/19 10:38:29;;;;;;;7.65;1.50;;;;;;;12.37;68.60;102557.84;4988223;28;20456;-43
2023/02/19 10:41:06;;;;;;;6.65;1.33;;;;;;;12.53;68.32;102549.66;4984987;28;20492;-40
2023/02/19 10:43:35;;;;;;;5.93;1.50;;;;;;;12.49;68.28;102556.53;4989331;28;20117;-43
2023/02/19 10:46:26;;;;;;;8.43;1.92;;;;;;;12.04;69.37;102552.38;4984115;28;20038;-41
2023/02/19 10:48:55;;;;;;;5.28;1.20;;;;;;;12.25;68.77;102563.56;4971436;28;20465;-41
2023/02/19 10:51:31;;;;;;;4.60;1.17;;;;;;;12.07;69.91;102555.13;4989852;28;20061;-40
2023/02/19 10:54:33;;;;;;;4.35;1.10;;;;;;;12.43;67.81;102551.09;4983717;28;20034;-40
2023/02/19 10:57:14;;;;;;;4.78;1.10;;;;;;;12.90;67.05;102556.94;4953870;28;20432;-43
2023/02/19 10:59:48;;;;;;;8.40;1.23;;;;;;;12.39;68.35;102556.16;4985545;28;20038;-45
2023/02/19 11:02:19;;;;;;;6.80;1.08;;;;;;;12.85;67.49;102550.66;4981808;28;20034;-41
2023/02/19 11:05:15;;;;;;;5.60;1.00;;;;;;;12.87;67.18;102544.63;4981241;28;20133;-41
2023/02/19 11:07:50;;;;;;;2.88;1.00;;;;;;;12.68;67.65;102552.78;4985626;28;20038;-41
2023/02/19 11:10:27;;;;;;;4.03;1.02;;;;;;;12.21;68.39;102551.22;4982244;28;20053;-44
2023/02/19 11:12:56;;;;;;;6.60;1.10;;;;;;;12.10;69.88;102545.63;4982089;28;20542;-41
2023/02/19 11:15:27;;;;;;;7.15;0.98;;;;;;;12.55;68.29;102548.00;4985435;28;20114;-45
2023/02/19 11:17:55;;;;;;;4.97;1.10;;;;;;;12.79;68.07;102551.38;4980651;28;20555;-43
2023/02/19 11:20:21;;;;;;;5.60;0.80;;;;;;;12.76;67.41;102550.38;4984995;28;20049;-43
2023/02/19 11:22:48;;;;;;;4.50;1.00;;;;;;;12.83;66.54;102560.19;4981044;28;20169;-41
2023/02/19 11:25:16;;;;;;;6.22;0.95;;;;;;;13.10;65.72;102557.53;4984950;28;20034;-41
2023/02/19 11:28:05;;;;;;;6.32;1.08;;;;;;;12.89;66.85;102560.38;4984743;28;20525;-44
2023/02/19 11:30:40;;;;;;;4.63;1.15;;;;;;;12.84;67.17;102561.97;4981007;28;20049;-42
2023/02/19 11:33:26;;;;;;;6.88;1.20;;;;;;;12.85;67.36;102563.75;4981080;28;20038;-41
2023/02/19 11:36:18;;;;;;;6.03;1.33;;;;;;;12.54;68.47;102560.19;4981726;28;20038;-42
2023/02/19 11:38:43;;;;;;;6.30;1.40;;;;;;;12.70;68.00;102574.63;4982816;28;20100;-42
2023/02/19 11:41:28;;;;;;;7.40;1.30;;;;;;;12.66;68.70;102557.06;4981559;28;20034;-45
2023/02/19 11:44:04;;;;;;;5.10;1.38;;;;;;;12.88;68.54;102556.88;4980617;28;20073;-42
2023/02/19 11:46:49;;;;;;;6.85;1.20;;;;;;;12.93;69.17;102555.28;4984380;28;20507;-43
2023/02/19 11:49:51;;;;;;;5.65;1.10;;;;;;;12.73;68.92;102558.16;4981441;28;20038;-43
2023/02/19 11:52:35;;;;;;;5.25;1.25;;;;;;;13.15;66.80;102563.84;4983724;28;20037;-43
2023/02/19 11:55:38;;;;;;;3.70;1.47;;;;;;;13.37;66.06;102556.63;4984276;28;20046;-41
2023/02/19 11:58:28;;;;;;;3.95;1.23;;;;;;;13.14;65.68;102570.78;4983852;28;20274;-43
2023/02/19 12:01:24;;;;;;;2.00;1.30;;;;;;;13.20;65.43;102567.47;4982887;28;20101;-44